sensor_id;sensor_type;location;lat;lon;timestamp;temperature;humidity
32865;DHT22;19219;44.500;11.188;2022-11-15T00:01:35;8.40;99.90
32865;DHT22;19219;44.500;11.188;2022-11-15T00:04:03;8.30;99.90
32865;DHT22;19219;44.500;11.188;2022-11-15T00:06:29;8.30;99.90
32865;DHT22;19219;44.500;11.188;2022-11-15T00:08:57;8.30;99.90
32865;DHT22;19219;44.500;11.188;2022-11-15T00:11:23;8.30;99.90
32865;DHT22;19219;44.500;11.188;2022-11-15T00:13:48;8.30;99.90
32865;DHT22;19219;44.500;11.188;2022-11-15T00:16:14;8.30;99.90
32865;DHT22;19219;44.500;11.188;2022-11-15T00:18:40;8.20;99.90
32865;DHT22;19219;44.500;11.188;2022-11-15T00:21:07;8.20;99.90
32865;DHT22;19219;44.500;11.188;2022-11-15T00:23:34;8.30;99.90
32865;DHT22;19219;44.500;11.188;2022-11-15T00:26:00;8.20;99.90
32865;DHT22;19219;44.500;11.188;2022-11-15T00:28:26;8.20;99.90
32865;DHT22;19219;44.500;11.188;2022-11-15T00:30:52;8.10;99.90
32865;DHT22;19219;44.500;11.188;2022-11-15T00:33:17;8.10;99.90
32865;DHT22;19219;44.500;11.188;2022-11-15T00:35:43;8.00;99.90
32865;DHT22;19219;44.500;11.188;2022-11-15T00:38:09;8.00;99.90
32865;DHT22;19219;44.500;11.188;2022-11-15T00:40:34;7.90;99.90
32865;DHT22;19219;44.500;11.188;2022-11-15T00:43:00;7.90;99.90
32865;DHT22;19219;44.500;11.188;2022-11-15T00:45:26;7.90;99.90
32865;DHT22;19219;44.500;11.188;2022-11-15T00:47:52;7.90;99.90
32865;DHT22;19219;44.500;11.188;2022-11-15T00:50:18;7.90;99.90
32865;DHT22;19219;44.500;11.188;2022-11-15T00:52:44;7.80;99.90
32865;DHT22;19219;44.500;11.188;2022-11-15T00:55:17;7.80;99.90
32865;DHT22;19219;44.500;11.188;2022-11-15T00:57:43;7.80;99.90
32865;DHT22;19219;44.500;11.188;2022-11-15T01:00:09;7.70;99.90
32865;DHT22;19219;44.500;11.188;2022-11-15T01:02:35;7.80;99.90
32865;DHT22;19219;44.500;11.188;2022-11-15T01:05:01;7.70;99.90
32865;DHT22;19219;44.500;11.188;2022-11-15T01:07:27;7.70;99.90
32865;DHT22;19219;44.500;11.188;2022-11-15T01:09:53;7.70;99.90
32865;DHT22;19219;44.500;11.188;2022-11-15T01:12:18;7.70;99.90
32865;DHT22;19219;44.500;11.188;2022-11-15T01:14:44;7.70;99.90
32865;DHT22;19219;44.500;11.188;2022-11-15T01:17:10;7.70;99.90
32865;DHT22;19219;44.500;11.188;2022-11-15T01:19:35;7.70;99.90
32865;DHT22;19219;44.500;11.188;2022-11-15T01:22:01;7.60;99.90
32865;DHT22;19219;44.500;11.188;2022-11-15T01:24:27;7.60;99.90
32865;DHT22;19219;44.500;11.188;2022-11-15T01:26:54;7.60;99.90
32865;DHT22;19219;44.500;11.188;2022-11-15T01:29:19;7.70;99.90
32865;DHT22;19219;44.500;11.188;2022-11-15T01:31:45;7.70;99.90
32865;DHT22;19219;44.500;11.188;2022-11-15T01:34:11;7.70;99.90
32865;DHT22;19219;44.500;11.188;2022-11-15T01:36:36;7.70;99.90
32865;DHT22;19219;44.500;11.188;2022-11-15T01:39:02;7.60;99.90
32865;DHT22;19219;44.500;11.188;2022-11-15T01:41:32;7.70;99.90
32865;DHT22;19219;44.500;11.188;2022-11-15T01:46:56;7.70;99.90
32865;DHT22;19219;44.500;11.188;2022-11-15T01:49:23;7.70;99.90
32865;DHT22;19219;44.500;11.188;2022-11-15T01:51:49;7.60;99.90
32865;DHT22;19219;44.500;11.188;2022-11-15T01:54:16;7.60;99.90
32865;DHT22;19219;44.500;11.188;2022-11-15T01:56:49;7.60;99.90
32865;DHT22;19219;44.500;11.188;2022-11-15T01:59:16;7.60;99.90
32865;DHT22;19219;44.500;11.188;2022-11-15T02:01:42;7.60;99.90
32865;DHT22;19219;44.500;11.188;2022-11-15T02:04:28;7.60;99.90
32865;DHT22;19219;44.500;11.188;2022-11-15T02:06:54;7.60;99.90
32865;DHT22;19219;44.500;11.188;2022-11-15T02:09:19;7.50;99.90
32865;DHT22;19219;44.500;11.188;2022-11-15T02:11:46;7.50;99.90
32865;DHT22;19219;44.500;11.188;2022-11-15T02:14:14;7.40;99.90
32865;DHT22;19219;44.500;11.188;2022-11-15T02:17:20;7.30;99.90
32865;DHT22;19219;44.500;11.188;2022-11-15T02:28:22;7.30;99.90
32865;DHT22;19219;44.500;11.188;2022-11-15T02:33:36;7.30;99.90
32865;DHT22;19219;44.500;11.188;2022-11-15T02:36:12;7.20;99.90
32865;DHT22;19219;44.500;11.188;2022-11-15T02:39:07;7.20;99.90
32865;DHT22;19219;44.500;11.188;2022-11-15T02:41:53;7.20;99.90
32865;DHT22;19219;44.500;11.188;2022-11-15T02:44:37;7.30;99.90
32865;DHT22;19219;44.500;11.188;2022-11-15T02:47:07;7.30;99.90
32865;DHT22;19219;44.500;11.188;2022-11-15T02:49:46;7.30;99.90
32865;DHT22;19219;44.500;11.188;2022-11-15T02:52:16;7.40;99.90
32865;DHT22;19219;44.500;11.188;2022-11-15T02:54:42;7.40;99.90
32865;DHT22;19219;44.500;11.188;2022-11-15T02:57:16;7.50;99.90
32865;DHT22;19219;44.500;11.188;2022-11-15T03:08:17;7.60;99.90
32865;DHT22;19219;44.500;11.188;2022-11-15T03:11:08;7.50;99.90
32865;DHT22;19219;44.500;11.188;2022-11-15T03:16:42;7.60;99.90
32865;DHT22;19219;44.500;11.188;2022-11-15T03:19:37;7.50;99.90
32865;DHT22;19219;44.500;11.188;2022-11-15T03:22:09;7.40;99.90
32865;DHT22;19219;44.500;11.188;2022-11-15T03:24:37;7.40;99.90
32865;DHT22;19219;44.500;11.188;2022-11-15T03:27:05;7.50;99.90
32865;DHT22;19219;44.500;11.188;2022-11-15T03:29:41;7.50;99.90
32865;DHT22;19219;44.500;11.188;2022-11-15T03:32:16;7.50;99.90
32865;DHT22;19219;44.500;11.188;2022-11-15T03:35:07;7.50;99.90
32865;DHT22;19219;44.500;11.188;2022-11-15T03:37:45;7.60;99.90
32865;DHT22;19219;44.500;11.188;2022-11-15T03:40:14;7.60;99.90
32865;DHT22;19219;44.500;11.188;2022-11-15T03:43:36;7.90;99.90
32865;DHT22;19219;44.500;11.188;2022-11-15T03:45:41;7.60;99.90
32865;DHT22;19219;44.500;11.188;2022-11-15T03:48:25;7.60;99.90
32865;DHT22;19219;44.500;11.188;2022-11-15T03:50:52;7.60;99.90
32865;DHT22;19219;44.500;11.188;2022-11-15T03:53:18;7.60;99.90
32865;DHT22;19219;44.500;11.188;2022-11-15T03:55:44;7.50;99.90
32865;DHT22;19219;44.500;11.188;2022-11-15T03:58:10;7.50;99.90
32865;DHT22;19219;44.500;11.188;2022-11-15T04:00:35;7.50;99.90
32865;DHT22;19219;44.500;11.188;2022-11-15T04:03:01;7.50;99.90
32865;DHT22;19219;44.500;11.188;2022-11-15T04:05:27;7.10;99.90
32865;DHT22;19219;44.500;11.188;2022-11-15T04:07:53;7.40;99.90
32865;DHT22;19219;44.500;11.188;2022-11-15T04:10:18;7.30;99.90
32865;DHT22;19219;44.500;11.188;2022-11-15T04:12:45;7.40;99.90
32865;DHT22;19219;44.500;11.188;2022-11-15T04:15:16;7.40;99.90
32865;DHT22;19219;44.500;11.188;2022-11-15T04:20:35;7.40;99.90
32865;DHT22;19219;44.500;11.188;2022-11-15T04:23:22;7.40;99.90
32865;DHT22;19219;44.500;11.188;2022-11-15T04:26:12;7.40;99.90
32865;DHT22;19219;44.500;11.188;2022-11-15T04:28:38;7.40;99.90
32865;DHT22;19219;44.500;11.188;2022-11-15T04:31:23;7.40;99.90
32865;DHT22;19219;44.500;11.188;2022-11-15T04:33:48;7.50;99.90
32865;DHT22;19219;44.500;11.188;2022-11-15T04:36:14;7.60;99.90
32865;DHT22;19219;44.500;11.188;2022-11-15T04:38:59;7.60;99.90
32865;DHT22;19219;44.500;11.188;2022-11-15T04:41:24;7.60;99.90
32865;DHT22;19219;44.500;11.188;2022-11-15T04:43:50;7.50;99.90
32865;DHT22;19219;44.500;11.188;2022-11-15T04:46:16;7.50;99.90
32865;DHT22;19219;44.500;11.188;2022-11-15T04:48:41;7.50;99.90
32865;DHT22;19219;44.500;11.188;2022-11-15T04:51:07;7.40;99.90
32865;DHT22;19219;44.500;11.188;2022-11-15T04:53:33;7.40;99.90
32865;DHT22;19219;44.500;11.188;2022-11-15T04:55:58;7.40;99.90
32865;DHT22;19219;44.500;11.188;2022-11-15T04:58:24;7.50;99.90
32865;DHT22;19219;44.500;11.188;2022-11-15T05:00:49;7.40;99.90
32865;DHT22;19219;44.500;11.188;2022-11-15T05:03:15;7.40;99.90
32865;DHT22;19219;44.500;11.188;2022-11-15T05:05:59;7.40;99.90
32865;DHT22;19219;44.500;11.188;2022-11-15T05:08:25;7.40;99.90
32865;DHT22;19219;44.500;11.188;2022-11-15T05:10:51;7.40;99.90
32865;DHT22;19219;44.500;11.188;2022-11-15T05:13:17;7.30;99.90
32865;DHT22;19219;44.500;11.188;2022-11-15T05:15:43;7.30;99.90
32865;DHT22;19219;44.500;11.188;2022-11-15T05:18:09;7.20;99.90
32865;DHT22;19219;44.500;11.188;2022-11-15T05:20:35;7.30;99.90
32865;DHT22;19219;44.500;11.188;2022-11-15T05:23:00;7.40;99.90
32865;DHT22;19219;44.500;11.188;2022-11-15T05:25:26;7.30;99.90
32865;DHT22;19219;44.500;11.188;2022-11-15T05:27:52;7.20;99.90
32865;DHT22;19219;44.500;11.188;2022-11-15T05:30:18;7.20;99.90
32865;DHT22;19219;44.500;11.188;2022-11-15T05:32:43;7.20;99.90
32865;DHT22;19219;44.500;11.188;2022-11-15T05:35:13;7.20;99.90
32865;DHT22;19219;44.500;11.188;2022-11-15T05:37:41;7.30;99.90
32865;DHT22;19219;44.500;11.188;2022-11-15T05:40:07;7.40;99.90
32865;DHT22;19219;44.500;11.188;2022-11-15T05:42:33;7.40;99.90
32865;DHT22;19219;44.500;11.188;2022-11-15T05:44:59;7.40;99.90
32865;DHT22;19219;44.500;11.188;2022-11-15T05:47:29;7.50;99.90
32865;DHT22;19219;44.500;11.188;2022-11-15T05:49:56;7.50;99.90
32865;DHT22;19219;44.500;11.188;2022-11-15T05:52:25;7.60;99.90
32865;DHT22;19219;44.500;11.188;2022-11-15T05:54:53;7.50;99.90
32865;DHT22;19219;44.500;11.188;2022-11-15T05:57:19;7.60;99.90
32865;DHT22;19219;44.500;11.188;2022-11-15T05:59:45;7.70;99.90
32865;DHT22;19219;44.500;11.188;2022-11-15T06:02:11;7.70;99.90
32865;DHT22;19219;44.500;11.188;2022-11-15T06:04:36;7.70;99.90
32865;DHT22;19219;44.500;11.188;2022-11-15T06:07:02;7.70;99.90
32865;DHT22;19219;44.500;11.188;2022-11-15T06:09:28;7.80;99.90
32865;DHT22;19219;44.500;11.188;2022-11-15T06:11:53;7.80;99.90
32865;DHT22;19219;44.500;11.188;2022-11-15T06:14:19;7.80;99.90
32865;DHT22;19219;44.500;11.188;2022-11-15T06:16:45;7.80;99.90
32865;DHT22;19219;44.500;11.188;2022-11-15T06:19:10;7.80;99.90
32865;DHT22;19219;44.500;11.188;2022-11-15T06:21:36;7.80;99.90
32865;DHT22;19219;44.500;11.188;2022-11-15T06:24:02;7.90;99.90
32865;DHT22;19219;44.500;11.188;2022-11-15T06:26:28;7.80;99.90
32865;DHT22;19219;44.500;11.188;2022-11-15T06:28:53;7.80;99.90
32865;DHT22;19219;44.500;11.188;2022-11-15T06:31:19;7.80;99.90
32865;DHT22;19219;44.500;11.188;2022-11-15T06:33:46;7.80;99.90
32865;DHT22;19219;44.500;11.188;2022-11-15T06:36:12;7.80;99.90
32865;DHT22;19219;44.500;11.188;2022-11-15T06:38:45;7.90;99.90
32865;DHT22;19219;44.500;11.188;2022-11-15T06:41:11;7.90;99.90
32865;DHT22;19219;44.500;11.188;2022-11-15T06:43:38;7.90;99.90
32865;DHT22;19219;44.500;11.188;2022-11-15T06:46:05;7.90;99.90
32865;DHT22;19219;44.500;11.188;2022-11-15T06:48:32;7.90;99.90
32865;DHT22;19219;44.500;11.188;2022-11-15T06:50:59;7.90;99.90
32865;DHT22;19219;44.500;11.188;2022-11-15T06:53:26;8.00;99.90
32865;DHT22;19219;44.500;11.188;2022-11-15T06:55:52;8.00;99.90
32865;DHT22;19219;44.500;11.188;2022-11-15T06:58:18;8.00;99.90
32865;DHT22;19219;44.500;11.188;2022-11-15T07:00:44;8.00;99.90
32865;DHT22;19219;44.500;11.188;2022-11-15T07:03:10;8.00;99.90
32865;DHT22;19219;44.500;11.188;2022-11-15T07:05:36;8.00;99.90
32865;DHT22;19219;44.500;11.188;2022-11-15T07:08:02;8.10;99.90
32865;DHT22;19219;44.500;11.188;2022-11-15T07:10:28;8.20;99.90
32865;DHT22;19219;44.500;11.188;2022-11-15T07:12:54;8.30;99.90
32865;DHT22;19219;44.500;11.188;2022-11-15T07:15:25;8.30;99.90
32865;DHT22;19219;44.500;11.188;2022-11-15T07:17:51;8.30;99.90
32865;DHT22;19219;44.500;11.188;2022-11-15T07:20:17;8.50;99.90
32865;DHT22;19219;44.500;11.188;2022-11-15T07:22:43;8.50;99.90
32865;DHT22;19219;44.500;11.188;2022-11-15T07:25:12;8.60;99.90
32865;DHT22;19219;44.500;11.188;2022-11-15T07:27:37;8.70;99.90
32865;DHT22;19219;44.500;11.188;2022-11-15T07:30:04;8.70;99.90
32865;DHT22;19219;44.500;11.188;2022-11-15T07:32:30;8.80;99.90
32865;DHT22;19219;44.500;11.188;2022-11-15T07:34:55;8.90;99.90
32865;DHT22;19219;44.500;11.188;2022-11-15T07:37:21;9.00;99.90
32865;DHT22;19219;44.500;11.188;2022-11-15T07:39:47;9.00;99.90
32865;DHT22;19219;44.500;11.188;2022-11-15T07:42:12;9.10;99.90
32865;DHT22;19219;44.500;11.188;2022-11-15T07:44:56;9.20;99.90
32865;DHT22;19219;44.500;11.188;2022-11-15T07:47:22;9.30;99.90
32865;DHT22;19219;44.500;11.188;2022-11-15T07:49:48;9.30;99.90
32865;DHT22;19219;44.500;11.188;2022-11-15T07:52:13;9.40;99.90
32865;DHT22;19219;44.500;11.188;2022-11-15T07:54:39;9.40;99.90
32865;DHT22;19219;44.500;11.188;2022-11-15T07:57:05;9.50;99.90
32865;DHT22;19219;44.500;11.188;2022-11-15T07:59:32;9.50;99.90
32865;DHT22;19219;44.500;11.188;2022-11-15T08:01:58;9.60;99.90
32865;DHT22;19219;44.500;11.188;2022-11-15T08:04:23;9.60;99.90
32865;DHT22;19219;44.500;11.188;2022-11-15T08:06:49;9.70;99.90
32865;DHT22;19219;44.500;11.188;2022-11-15T08:09:15;9.80;99.90
32865;DHT22;19219;44.500;11.188;2022-11-15T08:11:41;9.80;99.90
32865;DHT22;19219;44.500;11.188;2022-11-15T08:14:06;9.90;99.90
32865;DHT22;19219;44.500;11.188;2022-11-15T08:16:32;10.00;99.90
32865;DHT22;19219;44.500;11.188;2022-11-15T08:18:58;10.00;99.90
32865;DHT22;19219;44.500;11.188;2022-11-15T08:21:24;10.10;99.90
32865;DHT22;19219;44.500;11.188;2022-11-15T08:23:50;10.10;99.90
32865;DHT22;19219;44.500;11.188;2022-11-15T08:26:15;10.20;99.90
32865;DHT22;19219;44.500;11.188;2022-11-15T08:28:42;10.20;99.90
32865;DHT22;19219;44.500;11.188;2022-11-15T08:31:14;10.30;99.90
32865;DHT22;19219;44.500;11.188;2022-11-15T08:33:40;10.40;99.90
32865;DHT22;19219;44.500;11.188;2022-11-15T08:36:05;10.30;99.90
32865;DHT22;19219;44.500;11.188;2022-11-15T08:38:31;10.40;99.90
32865;DHT22;19219;44.500;11.188;2022-11-15T08:41:02;10.50;99.90
32865;DHT22;19219;44.500;11.188;2022-11-15T08:43:28;10.60;99.90
32865;DHT22;19219;44.500;11.188;2022-11-15T08:45:57;10.70;99.90
32865;DHT22;19219;44.500;11.188;2022-11-15T08:48:23;10.70;99.90
32865;DHT22;19219;44.500;11.188;2022-11-15T08:50:48;10.80;99.90
32865;DHT22;19219;44.500;11.188;2022-11-15T08:53:14;10.90;99.90
32865;DHT22;19219;44.500;11.188;2022-11-15T08:55:40;10.90;99.90
32865;DHT22;19219;44.500;11.188;2022-11-15T08:58:06;10.80;99.90
32865;DHT22;19219;44.500;11.188;2022-11-15T09:00:32;10.80;99.90
32865;DHT22;19219;44.500;11.188;2022-11-15T09:02:58;10.80;99.90
32865;DHT22;19219;44.500;11.188;2022-11-15T09:05:25;10.90;99.90
32865;DHT22;19219;44.500;11.188;2022-11-15T09:07:53;10.90;99.90
32865;DHT22;19219;44.500;11.188;2022-11-15T09:10:20;10.90;99.90
32865;DHT22;19219;44.500;11.188;2022-11-15T09:12:46;10.90;99.90
32865;DHT22;19219;44.500;11.188;2022-11-15T09:15:14;11.00;99.90
32865;DHT22;19219;44.500;11.188;2022-11-15T09:17:40;11.10;99.90
32865;DHT22;19219;44.500;11.188;2022-11-15T09:20:07;11.20;99.90
32865;DHT22;19219;44.500;11.188;2022-11-15T09:22:32;11.20;99.90
32865;DHT22;19219;44.500;11.188;2022-11-15T09:24:58;11.30;99.90
32865;DHT22;19219;44.500;11.188;2022-11-15T09:27:28;11.40;99.90
32865;DHT22;19219;44.500;11.188;2022-11-15T09:29:54;11.50;99.90
32865;DHT22;19219;44.500;11.188;2022-11-15T09:32:19;11.60;99.90
32865;DHT22;19219;44.500;11.188;2022-11-15T09:34:45;11.70;99.90
32865;DHT22;19219;44.500;11.188;2022-11-15T09:37:11;11.70;99.90
32865;DHT22;19219;44.500;11.188;2022-11-15T09:39:37;11.90;99.90
32865;DHT22;19219;44.500;11.188;2022-11-15T09:42:43;11.90;99.90
32865;DHT22;19219;44.500;11.188;2022-11-15T09:45:43;11.90;99.90
32865;DHT22;19219;44.500;11.188;2022-11-15T09:51:14;12.30;99.90
32865;DHT22;19219;44.500;11.188;2022-11-15T09:53:47;12.40;99.90
32865;DHT22;19219;44.500;11.188;2022-11-15T09:56:22;12.60;99.90
32865;DHT22;19219;44.500;11.188;2022-11-15T10:01:37;13.10;99.90
32865;DHT22;19219;44.500;11.188;2022-11-15T10:04:04;13.40;99.90
32865;DHT22;19219;44.500;11.188;2022-11-15T10:06:31;13.80;99.90
32865;DHT22;19219;44.500;11.188;2022-11-15T10:09:06;14.00;99.90
32865;DHT22;19219;44.500;11.188;2022-11-15T10:11:36;14.40;99.90
32865;DHT22;19219;44.500;11.188;2022-11-15T10:14:12;14.60;99.90
32865;DHT22;19219;44.500;11.188;2022-11-15T10:17:04;14.80;99.90
32865;DHT22;19219;44.500;11.188;2022-11-15T10:20:09;14.70;99.90
32865;DHT22;19219;44.500;11.188;2022-11-15T10:22:59;14.70;99.90
32865;DHT22;19219;44.500;11.188;2022-11-15T10:25:33;14.60;99.90
32865;DHT22;19219;44.500;11.188;2022-11-15T10:28:13;14.40;99.90
32865;DHT22;19219;44.500;11.188;2022-11-15T10:30:41;14.30;99.90
32865;DHT22;19219;44.500;11.188;2022-11-15T10:35:45;14.20;99.90
32865;DHT22;19219;44.500;11.188;2022-11-15T10:38:13;14.10;99.90
32865;DHT22;19219;44.500;11.188;2022-11-15T10:40:40;13.90;99.90
32865;DHT22;19219;44.500;11.188;2022-11-15T10:43:17;13.90;99.90
32865;DHT22;19219;44.500;11.188;2022-11-15T10:45:44;13.80;99.90
32865;DHT22;19219;44.500;11.188;2022-11-15T10:50:46;13.60;99.90
32865;DHT22;19219;44.500;11.188;2022-11-15T10:55:47;13.50;99.90
32865;DHT22;19219;44.500;11.188;2022-11-15T11:00:46;13.40;99.90
32865;DHT22;19219;44.500;11.188;2022-11-15T11:03:35;13.40;99.90
32865;DHT22;19219;44.500;11.188;2022-11-15T11:08:31;13.30;99.90
32865;DHT22;19219;44.500;11.188;2022-11-15T11:11:01;13.30;99.90
32865;DHT22;19219;44.500;11.188;2022-11-15T11:13:29;13.40;99.90
32865;DHT22;19219;44.500;11.188;2022-11-15T11:21:18;13.40;99.90
32865;DHT22;19219;44.500;11.188;2022-11-15T11:29:48;13.20;99.90
32865;DHT22;19219;44.500;11.188;2022-11-15T11:32:49;13.20;99.90
32865;DHT22;19219;44.500;11.188;2022-11-15T11:41:09;13.10;99.90
32865;DHT22;19219;44.500;11.188;2022-11-15T11:49:19;13.00;99.90
32865;DHT22;19219;44.500;11.188;2022-11-15T12:00:19;12.80;99.90
32865;DHT22;19219;44.500;11.188;2022-11-15T12:03:12;12.70;99.90
32865;DHT22;19219;44.500;11.188;2022-11-15T12:08:21;12.70;99.90
32865;DHT22;19219;44.500;11.188;2022-11-15T12:10:54;12.70;99.90
32865;DHT22;19219;44.500;11.188;2022-11-15T12:13:26;12.60;99.90
32865;DHT22;19219;44.500;11.188;2022-11-15T12:16:12;12.60;99.90
32865;DHT22;19219;44.500;11.188;2022-11-15T12:18:43;12.50;99.90
32865;DHT22;19219;44.500;11.188;2022-11-15T12:27:05;12.40;99.90
32865;DHT22;19219;44.500;11.188;2022-11-15T12:29:35;12.30;99.90
32865;DHT22;19219;44.500;11.188;2022-11-15T12:32:02;12.10;99.90
32865;DHT22;19219;44.500;11.188;2022-11-15T12:34:39;12.10;99.90
32865;DHT22;19219;44.500;11.188;2022-11-15T12:37:32;12.10;99.90
32865;DHT22;19219;44.500;11.188;2022-11-15T12:40:30;12.10;99.90
32865;DHT22;19219;44.500;11.188;2022-11-15T12:43:32;12.00;99.90
32865;DHT22;19219;44.500;11.188;2022-11-15T12:45:50;12.00;99.90
32865;DHT22;19219;44.500;11.188;2022-11-15T13:06:51;11.90;99.90
32865;DHT22;19219;44.500;11.188;2022-11-15T13:11:54;11.90;99.90
32865;DHT22;19219;44.500;11.188;2022-11-15T13:19:53;11.70;99.90
32865;DHT22;19219;44.500;11.188;2022-11-15T13:22:18;11.80;99.90
32865;DHT22;19219;44.500;11.188;2022-11-15T13:25:03;11.80;99.90
32865;DHT22;19219;44.500;11.188;2022-11-15T13:27:29;11.80;99.90
32865;DHT22;19219;44.500;11.188;2022-11-15T13:29:55;11.80;99.90
32865;DHT22;19219;44.500;11.188;2022-11-15T13:32:20;11.70;99.90
32865;DHT22;19219;44.500;11.188;2022-11-15T13:34:47;11.70;99.90
32865;DHT22;19219;44.500;11.188;2022-11-15T13:39:46;11.80;99.90
32865;DHT22;19219;44.500;11.188;2022-11-15T13:42:15;11.80;99.90
32865;DHT22;19219;44.500;11.188;2022-11-15T13:44:41;11.80;99.90
32865;DHT22;19219;44.500;11.188;2022-11-15T13:47:19;11.80;99.90
32865;DHT22;19219;44.500;11.188;2022-11-15T13:49:45;11.70;99.90
32865;DHT22;19219;44.500;11.188;2022-11-15T13:52:11;11.60;99.90
32865;DHT22;19219;44.500;11.188;2022-11-15T13:57:10;11.40;99.90
32865;DHT22;19219;44.500;11.188;2022-11-15T13:59:37;11.40;99.90
32865;DHT22;19219;44.500;11.188;2022-11-15T14:02:13;11.40;99.90
32865;DHT22;19219;44.500;11.188;2022-11-15T14:04:44;11.30;99.90
32865;DHT22;19219;44.500;11.188;2022-11-15T14:07:15;11.30;99.90
32865;DHT22;19219;44.500;11.188;2022-11-15T14:09:41;11.30;99.90
32865;DHT22;19219;44.500;11.188;2022-11-15T14:14:50;11.30;99.90
32865;DHT22;19219;44.500;11.188;2022-11-15T14:17:20;11.20;99.90
32865;DHT22;19219;44.500;11.188;2022-11-15T14:19:49;11.20;99.90
32865;DHT22;19219;44.500;11.188;2022-11-15T14:24:45;11.30;99.90
32865;DHT22;19219;44.500;11.188;2022-11-15T14:27:17;11.30;99.90
32865;DHT22;19219;44.500;11.188;2022-11-15T14:29:43;11.30;99.90
32865;DHT22;19219;44.500;11.188;2022-11-15T14:32:16;11.30;99.90
32865;DHT22;19219;44.500;11.188;2022-11-15T14:34:42;11.30;99.90
32865;DHT22;19219;44.500;11.188;2022-11-15T14:39:45;11.30;99.90
32865;DHT22;19219;44.500;11.188;2022-11-15T14:42:11;11.20;99.90
32865;DHT22;19219;44.500;11.188;2022-11-15T14:44:36;11.20;99.90
32865;DHT22;19219;44.500;11.188;2022-11-15T14:47:02;11.20;99.90
32865;DHT22;19219;44.500;11.188;2022-11-15T14:49:27;11.20;99.90
32865;DHT22;19219;44.500;11.188;2022-11-15T14:51:53;11.20;99.90
32865;DHT22;19219;44.500;11.188;2022-11-15T14:54:18;11.20;99.90
32865;DHT22;19219;44.500;11.188;2022-11-15T14:56:44;11.30;99.90
32865;DHT22;19219;44.500;11.188;2022-11-15T14:59:09;11.30;99.90
32865;DHT22;19219;44.500;11.188;2022-11-15T15:01:35;11.30;99.90
32865;DHT22;19219;44.500;11.188;2022-11-15T15:04:00;11.30;99.90
32865;DHT22;19219;44.500;11.188;2022-11-15T15:06:26;11.30;99.90
32865;DHT22;19219;44.500;11.188;2022-11-15T15:08:51;11.20;99.90
32865;DHT22;19219;44.500;11.188;2022-11-15T15:11:21;11.20;99.90
32865;DHT22;19219;44.500;11.188;2022-11-15T15:13:47;11.20;99.90
32865;DHT22;19219;44.500;11.188;2022-11-15T15:16:12;11.30;99.90
32865;DHT22;19219;44.500;11.188;2022-11-15T15:18:38;11.30;99.90
32865;DHT22;19219;44.500;11.188;2022-11-15T15:21:04;11.30;99.90
32865;DHT22;19219;44.500;11.188;2022-11-15T15:23:37;11.30;99.90
32865;DHT22;19219;44.500;11.188;2022-11-15T15:26:03;11.30;99.90
32865;DHT22;19219;44.500;11.188;2022-11-15T15:28:29;11.30;99.90
32865;DHT22;19219;44.500;11.188;2022-11-15T15:30:55;11.30;99.90
32865;DHT22;19219;44.500;11.188;2022-11-15T15:33:20;11.30;99.90
32865;DHT22;19219;44.500;11.188;2022-11-15T15:35:46;11.30;99.90
32865;DHT22;19219;44.500;11.188;2022-11-15T15:38:11;11.30;99.90
32865;DHT22;19219;44.500;11.188;2022-11-15T15:40:37;11.30;99.90
32865;DHT22;19219;44.500;11.188;2022-11-15T15:43:03;11.20;99.90
32865;DHT22;19219;44.500;11.188;2022-11-15T15:45:28;11.20;99.90
32865;DHT22;19219;44.500;11.188;2022-11-15T15:47:55;11.20;99.90
32865;DHT22;19219;44.500;11.188;2022-11-15T15:50:27;11.20;99.90
32865;DHT22;19219;44.500;11.188;2022-11-15T15:52:55;11.20;99.90
32865;DHT22;19219;44.500;11.188;2022-11-15T15:55:21;11.20;99.90
32865;DHT22;19219;44.500;11.188;2022-11-15T15:57:47;11.20;99.90
32865;DHT22;19219;44.500;11.188;2022-11-15T16:00:13;11.20;99.90
32865;DHT22;19219;44.500;11.188;2022-11-15T16:02:38;11.30;99.90
32865;DHT22;19219;44.500;11.188;2022-11-15T16:05:04;11.30;99.90
32865;DHT22;19219;44.500;11.188;2022-11-15T16:07:30;11.30;99.90
32865;DHT22;19219;44.500;11.188;2022-11-15T16:09:55;11.20;99.90
32865;DHT22;19219;44.500;11.188;2022-11-15T16:14:53;11.20;99.90
32865;DHT22;19219;44.500;11.188;2022-11-15T16:17:20;11.20;99.90
32865;DHT22;19219;44.500;11.188;2022-11-15T16:19:45;11.20;99.90
32865;DHT22;19219;44.500;11.188;2022-11-15T16:22:11;11.20;99.90
32865;DHT22;19219;44.500;11.188;2022-11-15T16:24:36;11.30;99.90
32865;DHT22;19219;44.500;11.188;2022-11-15T16:27:02;11.20;99.90
32865;DHT22;19219;44.500;11.188;2022-11-15T16:29:27;11.20;99.90
32865;DHT22;19219;44.500;11.188;2022-11-15T16:31:53;11.20;99.90
32865;DHT22;19219;44.500;11.188;2022-11-15T16:34:19;11.20;99.90
32865;DHT22;19219;44.500;11.188;2022-11-15T16:36:44;11.20;99.90
32865;DHT22;19219;44.500;11.188;2022-11-15T16:39:10;11.10;99.90
32865;DHT22;19219;44.500;11.188;2022-11-15T16:41:38;11.10;99.90
32865;DHT22;19219;44.500;11.188;2022-11-15T16:44:03;11.20;99.90
32865;DHT22;19219;44.500;11.188;2022-11-15T16:46:29;11.20;99.90
32865;DHT22;19219;44.500;11.188;2022-11-15T16:48:54;11.20;99.90
32865;DHT22;19219;44.500;11.188;2022-11-15T16:51:20;11.20;99.90
32865;DHT22;19219;44.500;11.188;2022-11-15T16:53:46;11.20;99.90
32865;DHT22;19219;44.500;11.188;2022-11-15T16:58:48;11.10;99.90
32865;DHT22;19219;44.500;11.188;2022-11-15T17:01:22;11.10;99.90
32865;DHT22;19219;44.500;11.188;2022-11-15T17:03:48;11.10;99.90
32865;DHT22;19219;44.500;11.188;2022-11-15T17:06:13;11.10;99.90
32865;DHT22;19219;44.500;11.188;2022-11-15T17:08:39;11.10;99.90
32865;DHT22;19219;44.500;11.188;2022-11-15T17:11:06;11.20;99.90
32865;DHT22;19219;44.500;11.188;2022-11-15T17:13:31;11.20;99.90
32865;DHT22;19219;44.500;11.188;2022-11-15T17:16:08;11.20;99.90
32865;DHT22;19219;44.500;11.188;2022-11-15T17:18:34;11.20;99.90
32865;DHT22;19219;44.500;11.188;2022-11-15T17:21:10;11.20;99.90
32865;DHT22;19219;44.500;11.188;2022-11-15T17:23:37;11.20;99.90
32865;DHT22;19219;44.500;11.188;2022-11-15T17:26:03;11.20;99.90
32865;DHT22;19219;44.500;11.188;2022-11-15T17:28:32;11.20;99.90
32865;DHT22;19219;44.500;11.188;2022-11-15T17:30:58;11.20;99.90
32865;DHT22;19219;44.500;11.188;2022-11-15T17:33:24;11.10;99.90
32865;DHT22;19219;44.500;11.188;2022-11-15T17:35:56;11.20;99.90
32865;DHT22;19219;44.500;11.188;2022-11-15T17:38:22;11.20;99.90
32865;DHT22;19219;44.500;11.188;2022-11-15T17:40:47;11.20;99.90
32865;DHT22;19219;44.500;11.188;2022-11-15T17:43:13;11.20;99.90
32865;DHT22;19219;44.500;11.188;2022-11-15T17:45:39;11.20;99.90